sensor_id;sensor_type;location;lat;lon;timestamp;noise_LAeq;noise_LA_min;noise_LA_max;noise_LA01;noise_LA95
72736;Laerm;60856;53.238;10.448;2023-10-09T00:01:17;46.61;45.38;49.42;;
72736;Laerm;60856;53.238;10.448;2023-10-09T00:03:46;46.62;45.28;49.68;;
72736;Laerm;60856;53.238;10.448;2023-10-09T00:06:17;46.61;45.40;49.72;;
72736;Laerm;60856;53.238;10.448;2023-10-09T00:08:48;46.61;45.17;49.95;;
72736;Laerm;60856;53.238;10.448;2023-10-09T00:11:18;46.60;45.29;49.72;;
72736;Laerm;60856;53.238;10.448;2023-10-09T00:13:45;46.60;45.34;49.63;;
72736;Laerm;60856;53.238;10.448;2023-10-09T00:16:21;46.60;45.10;49.49;;
72736;Laerm;60856;53.238;10.448;2023-10-09T00:19:02;46.61;45.31;49.88;;
72736;Laerm;60856;53.238;10.448;2023-10-09T00:21:47;46.61;45.36;49.67;;
72736;Laerm;60856;53.238;10.448;2023-10-09T00:24:13;46.60;45.49;49.73;;
72736;Laerm;60856;53.238;10.448;2023-10-09T00:26:40;46.60;45.28;50.08;;
72736;Laerm;60856;53.238;10.448;2023-10-09T00:29:09;46.60;45.38;49.85;;
72736;Laerm;60856;53.238;10.448;2023-10-09T00:31:40;46.61;45.30;49.60;;
72736;Laerm;60856;53.238;10.448;2023-10-09T00:34:15;46.61;45.50;49.54;;
72736;Laerm;60856;53.238;10.448;2023-10-09T00:36:44;46.59;45.43;49.76;;
72736;Laerm;60856;53.238;10.448;2023-10-09T00:39:19;46.59;45.18;50.59;;
72736;Laerm;60856;53.238;10.448;2023-10-09T00:42:07;46.59;45.10;50.34;;
72736;Laerm;60856;53.238;10.448;2023-10-09T00:44:33;46.57;45.21;49.68;;
72736;Laerm;60856;53.238;10.448;2023-10-09T00:47:08;46.59;45.34;49.68;;
72736;Laerm;60856;53.238;10.448;2023-10-09T00:52:14;46.60;45.24;49.72;;
72736;Laerm;60856;53.238;10.448;2023-10-09T00:54:43;46.65;45.46;49.74;;
72736;Laerm;60856;53.238;10.448;2023-10-09T00:57:15;46.62;45.39;49.63;;
72736;Laerm;60856;53.238;10.448;2023-10-09T00:59:41;46.61;45.30;49.62;;
72736;Laerm;60856;53.238;10.448;2023-10-09T01:02:12;46.63;45.41;51.83;;
72736;Laerm;60856;53.238;10.448;2023-10-09T01:04:37;46.64;45.43;49.93;;
72736;Laerm;60856;53.238;10.448;2023-10-09T01:07:05;46.61;45.46;49.59;;
72736;Laerm;60856;53.238;10.448;2023-10-09T01:09:40;46.63;45.25;50.01;;
72736;Laerm;60856;53.238;10.448;2023-10-09T01:12:08;46.63;45.50;49.92;;
72736;Laerm;60856;53.238;10.448;2023-10-09T01:14:41;46.62;45.29;49.69;;
72736;Laerm;60856;53.238;10.448;2023-10-09T01:17:07;46.63;45.43;49.74;;
72736;Laerm;60856;53.238;10.448;2023-10-09T01:19:36;46.64;45.45;49.63;;
72736;Laerm;60856;53.238;10.448;2023-10-09T01:22:02;46.65;45.25;49.67;;
72736;Laerm;60856;53.238;10.448;2023-10-09T01:24:38;46.62;45.44;49.62;;
72736;Laerm;60856;53.238;10.448;2023-10-09T01:27:08;46.65;45.31;49.76;;
72736;Laerm;60856;53.238;10.448;2023-10-09T01:29:41;46.65;45.40;49.56;;
72736;Laerm;60856;53.238;10.448;2023-10-09T01:32:12;46.66;45.42;50.02;;
72736;Laerm;60856;53.238;10.448;2023-10-09T01:34:44;46.66;45.41;50.19;;
72736;Laerm;60856;53.238;10.448;2023-10-09T01:37:15;46.65;45.40;49.90;;
72736;Laerm;60856;53.238;10.448;2023-10-09T01:39:47;46.64;45.39;49.87;;
72736;Laerm;60856;53.238;10.448;2023-10-09T01:42:14;46.65;45.30;49.91;;
72736;Laerm;60856;53.238;10.448;2023-10-09T01:44:50;46.62;45.43;50.25;;
72736;Laerm;60856;53.238;10.448;2023-10-09T01:47:15;46.62;45.34;50.42;;
72736;Laerm;60856;53.238;10.448;2023-10-09T01:49:43;46.61;45.37;49.71;;
72736;Laerm;60856;53.238;10.448;2023-10-09T01:52:10;46.59;45.28;50.00;;
72736;Laerm;60856;53.238;10.448;2023-10-09T01:54:42;46.60;45.30;50.13;;
72736;Laerm;60856;53.238;10.448;2023-10-09T01:57:12;46.58;45.38;49.78;;
72736;Laerm;60856;53.238;10.448;2023-10-09T01:59:38;46.63;45.33;49.66;;
72736;Laerm;60856;53.238;10.448;2023-10-09T02:02:08;46.60;45.26;49.79;;
72736;Laerm;60856;53.238;10.448;2023-10-09T02:04:56;46.57;45.28;50.47;;
72736;Laerm;60856;53.238;10.448;2023-10-09T02:07:36;46.59;45.32;49.77;;
72736;Laerm;60856;53.238;10.448;2023-10-09T02:10:17;46.60;45.33;49.61;;
72736;Laerm;60856;53.238;10.448;2023-10-09T02:13:03;46.58;45.14;49.90;;
72736;Laerm;60856;53.238;10.448;2023-10-09T02:15:33;46.59;45.24;49.85;;
72736;Laerm;60856;53.238;10.448;2023-10-09T02:18:07;46.57;45.32;49.76;;
72736;Laerm;60856;53.238;10.448;2023-10-09T02:23:30;46.56;45.23;49.98;;
72736;Laerm;60856;53.238;10.448;2023-10-09T02:26:08;46.59;45.30;49.85;;
72736;Laerm;60856;53.238;10.448;2023-10-09T02:28:44;46.59;45.25;50.10;;
72736;Laerm;60856;53.238;10.448;2023-10-09T02:31:14;46.58;45.17;49.64;;
72736;Laerm;60856;53.238;10.448;2023-10-09T02:33:39;46.58;45.38;49.18;;
72736;Laerm;60856;53.238;10.448;2023-10-09T02:36:07;46.58;45.18;50.29;;
72736;Laerm;60856;53.238;10.448;2023-10-09T02:38:32;46.57;45.27;49.52;;
72736;Laerm;60856;53.238;10.448;2023-10-09T02:41:03;46.58;45.25;49.95;;
72736;Laerm;60856;53.238;10.448;2023-10-09T02:43:29;46.56;45.34;49.52;;
72736;Laerm;60856;53.238;10.448;2023-10-09T02:46:06;46.57;45.43;49.65;;
72736;Laerm;60856;53.238;10.448;2023-10-09T02:48:39;46.58;45.47;49.52;;
72736;Laerm;60856;53.238;10.448;2023-10-09T02:51:08;46.58;45.29;49.65;;
72736;Laerm;60856;53.238;10.448;2023-10-09T02:53:39;46.58;45.13;49.78;;
72736;Laerm;60856;53.238;10.448;2023-10-09T02:56:05;46.57;45.33;49.49;;
72736;Laerm;60856;53.238;10.448;2023-10-09T02:58:42;46.58;45.32;49.56;;
72736;Laerm;60856;53.238;10.448;2023-10-09T03:01:11;46.59;45.34;50.40;;
72736;Laerm;60856;53.238;10.448;2023-10-09T03:03:38;46.58;45.21;49.55;;
72736;Laerm;60856;53.238;10.448;2023-10-09T03:06:04;46.59;45.41;49.47;;
72736;Laerm;60856;53.238;10.448;2023-10-09T03:08:36;46.57;45.39;49.87;;
72736;Laerm;60856;53.238;10.448;2023-10-09T03:11:02;46.57;45.31;49.54;;
72736;Laerm;60856;53.238;10.448;2023-10-09T03:13:27;46.58;45.16;49.85;;
72736;Laerm;60856;53.238;10.448;2023-10-09T03:15:54;46.61;45.36;50.24;;
72736;Laerm;60856;53.238;10.448;2023-10-09T03:18:19;46.59;45.36;49.41;;
72736;Laerm;60856;53.238;10.448;2023-10-09T03:20:45;46.58;45.20;49.76;;
72736;Laerm;60856;53.238;10.448;2023-10-09T03:23:12;46.59;45.34;49.43;;
72736;Laerm;60856;53.238;10.448;2023-10-09T03:25:39;46.57;45.13;49.65;;
72736;Laerm;60856;53.238;10.448;2023-10-09T03:28:04;46.60;45.32;49.85;;
72736;Laerm;60856;53.238;10.448;2023-10-09T03:30:31;46.60;45.35;49.59;;
72736;Laerm;60856;53.238;10.448;2023-10-09T03:32:57;46.59;45.11;49.79;;
72736;Laerm;60856;53.238;10.448;2023-10-09T03:35:25;46.58;45.24;49.72;;
72736;Laerm;60856;53.238;10.448;2023-10-09T03:37:56;46.60;45.36;49.96;;
72736;Laerm;60856;53.238;10.448;2023-10-09T03:40:25;46.59;44.95;49.66;;
72736;Laerm;60856;53.238;10.448;2023-10-09T03:42:50;46.59;45.34;50.12;;
72736;Laerm;60856;53.238;10.448;2023-10-09T03:45:15;46.59;45.32;49.60;;
72736;Laerm;60856;53.238;10.448;2023-10-09T03:47:50;46.61;45.08;50.12;;
72736;Laerm;60856;53.238;10.448;2023-10-09T03:50:18;46.59;45.34;49.72;;
72736;Laerm;60856;53.238;10.448;2023-10-09T03:53:00;46.60;45.40;49.72;;
72736;Laerm;60856;53.238;10.448;2023-10-09T03:55:26;46.59;45.15;49.73;;
72736;Laerm;60856;53.238;10.448;2023-10-09T03:57:53;46.59;45.17;49.90;;
72736;Laerm;60856;53.238;10.448;2023-10-09T04:00:18;46.59;45.35;50.20;;
72736;Laerm;60856;53.238;10.448;2023-10-09T04:02:56;46.59;45.27;49.87;;
72736;Laerm;60856;53.238;10.448;2023-10-09T04:05:22;46.60;45.25;49.64;;
72736;Laerm;60856;53.238;10.448;2023-10-09T04:07:49;46.59;45.25;49.87;;
72736;Laerm;60856;53.238;10.448;2023-10-09T04:10:16;46.60;45.33;49.71;;
72736;Laerm;60856;53.238;10.448;2023-10-09T04:13:00;46.59;45.33;49.58;;
72736;Laerm;60856;53.238;10.448;2023-10-09T04:15:28;46.58;45.37;49.58;;
72736;Laerm;60856;53.238;10.448;2023-10-09T04:18:00;46.59;45.35;49.70;;
72736;Laerm;60856;53.238;10.448;2023-10-09T04:20:26;46.59;45.16;49.76;;
72736;Laerm;60856;53.238;10.448;2023-10-09T04:23:11;46.61;44.90;49.71;;
72736;Laerm;60856;53.238;10.448;2023-10-09T04:25:41;46.59;45.24;50.32;;
72736;Laerm;60856;53.238;10.448;2023-10-09T04:28:07;46.59;45.37;49.64;;
72736;Laerm;60856;53.238;10.448;2023-10-09T04:30:44;46.61;45.21;49.68;;
72736;Laerm;60856;53.238;10.448;2023-10-09T04:33:12;46.59;45.39;50.38;;
72736;Laerm;60856;53.238;10.448;2023-10-09T04:39:01;46.59;45.20;49.82;;
72736;Laerm;60856;53.238;10.448;2023-10-09T04:41:27;46.62;45.37;49.82;;
72736;Laerm;60856;53.238;10.448;2023-10-09T04:43:53;46.61;45.31;49.72;;
72736;Laerm;60856;53.238;10.448;2023-10-09T04:46:29;46.63;45.44;52.52;;
72736;Laerm;60856;53.238;10.448;2023-10-09T04:48:56;46.60;45.35;49.86;;
72736;Laerm;60856;53.238;10.448;2023-10-09T04:51:40;47.02;45.30;57.47;;
72736;Laerm;60856;53.238;10.448;2023-10-09T04:54:24;46.98;45.38;56.48;;
72736;Laerm;60856;53.238;10.448;2023-10-09T04:57:04;46.92;45.72;49.88;;
72736;Laerm;60856;53.238;10.448;2023-10-09T04:59:29;46.87;45.57;50.37;;
72736;Laerm;60856;53.238;10.448;2023-10-09T05:01:55;47.24;45.36;56.60;;
72736;Laerm;60856;53.238;10.448;2023-10-09T05:04:25;46.56;45.28;49.61;;
72736;Laerm;60856;53.238;10.448;2023-10-09T05:07:09;46.57;45.25;49.58;;
72736;Laerm;60856;53.238;10.448;2023-10-09T05:09:54;46.55;45.34;49.66;;
72736;Laerm;60856;53.238;10.448;2023-10-09T05:12:47;46.57;45.34;49.70;;
72736;Laerm;60856;53.238;10.448;2023-10-09T05:15:21;48.99;45.53;58.19;;
72736;Laerm;60856;53.238;10.448;2023-10-09T05:17:51;46.77;45.21;55.85;;
72736;Laerm;60856;53.238;10.448;2023-10-09T05:20:21;46.65;45.22;49.66;;
72736;Laerm;60856;53.238;10.448;2023-10-09T05:25:44;47.36;45.34;61.21;;
72736;Laerm;60856;53.238;10.448;2023-10-09T05:28:28;48.26;45.26;56.43;;
72736;Laerm;60856;53.238;10.448;2023-10-09T05:31:13;48.13;45.59;57.11;;
72736;Laerm;60856;53.238;10.448;2023-10-09T05:33:58;49.03;45.43;58.74;;
72736;Laerm;60856;53.238;10.448;2023-10-09T05:36:26;48.57;45.53;56.75;;
72736;Laerm;60856;53.238;10.448;2023-10-09T05:49:43;48.92;45.45;56.25;;
72736;Laerm;60856;53.238;10.448;2023-10-09T05:52:12;46.90;45.51;56.70;;
72736;Laerm;60856;53.238;10.448;2023-10-09T05:54:57;46.64;45.27;49.98;;
72736;Laerm;60856;53.238;10.448;2023-10-09T05:57:41;46.66;44.85;50.05;;
72736;Laerm;60856;53.238;10.448;2023-10-09T06:00:29;46.81;45.47;53.64;;
72736;Laerm;60856;53.238;10.448;2023-10-09T06:03:13;46.75;45.34;52.66;;
72736;Laerm;60856;53.238;10.448;2023-10-09T06:05:46;46.68;45.19;52.31;;
72736;Laerm;60856;53.238;10.448;2023-10-09T06:08:21;46.56;45.28;49.83;;
72736;Laerm;60856;53.238;10.448;2023-10-09T06:10:52;46.58;45.27;49.53;;
72736;Laerm;60856;53.238;10.448;2023-10-09T06:13:31;46.57;45.21;49.65;;
72736;Laerm;60856;53.238;10.448;2023-10-09T06:16:03;46.57;45.30;50.13;;
72736;Laerm;60856;53.238;10.448;2023-10-09T06:19:06;46.55;45.31;49.62;;
72736;Laerm;60856;53.238;10.448;2023-10-09T06:21:43;46.56;45.35;49.58;;
72736;Laerm;60856;53.238;10.448;2023-10-09T06:24:17;46.56;45.29;49.67;;
72736;Laerm;60856;53.238;10.448;2023-10-09T06:26:44;46.56;45.41;49.62;;
72736;Laerm;60856;53.238;10.448;2023-10-09T06:29:28;50.47;45.07;57.94;;
72736;Laerm;60856;53.238;10.448;2023-10-09T06:32:09;48.16;45.47;55.98;;
72736;Laerm;60856;53.238;10.448;2023-10-09T06:37:16;49.03;45.08;58.38;;
72736;Laerm;60856;53.238;10.448;2023-10-09T06:39:51;49.22;45.50;58.18;;
72736;Laerm;60856;53.238;10.448;2023-10-09T06:42:22;49.45;45.45;58.90;;
72736;Laerm;60856;53.238;10.448;2023-10-09T06:45:05;49.78;45.27;58.54;;
72736;Laerm;60856;53.238;10.448;2023-10-09T06:47:34;48.42;44.92;60.25;;
72736;Laerm;60856;53.238;10.448;2023-10-09T06:50:21;46.64;45.42;49.39;;
72736;Laerm;60856;53.238;10.448;2023-10-09T06:52:46;46.60;45.14;49.50;;
72736;Laerm;60856;53.238;10.448;2023-10-09T06:55:37;46.56;45.13;49.84;;
72736;Laerm;60856;53.238;10.448;2023-10-09T06:58:13;46.58;45.23;49.63;;
72736;Laerm;60856;53.238;10.448;2023-10-09T07:00:41;46.57;45.39;49.60;;
72736;Laerm;60856;53.238;10.448;2023-10-09T07:03:25;46.58;45.31;49.85;;
72736;Laerm;60856;53.238;10.448;2023-10-09T07:06:05;48.41;45.26;58.21;;
72736;Laerm;60856;53.238;10.448;2023-10-09T07:08:34;48.25;45.46;55.50;;
72736;Laerm;60856;53.238;10.448;2023-10-09T07:11:03;47.49;45.29;56.85;;
72736;Laerm;60856;53.238;10.448;2023-10-09T07:13:49;47.72;45.06;56.57;;
72736;Laerm;60856;53.238;10.448;2023-10-09T07:16:21;47.82;45.34;56.46;;
72736;Laerm;60856;53.238;10.448;2023-10-09T07:18:53;48.50;45.64;56.59;;
72736;Laerm;60856;53.238;10.448;2023-10-09T07:21:20;48.10;45.28;58.69;;
72736;Laerm;60856;53.238;10.448;2023-10-09T07:23:53;48.45;45.23;57.61;;
72736;Laerm;60856;53.238;10.448;2023-10-09T07:26:22;49.42;45.40;57.34;;
72736;Laerm;60856;53.238;10.448;2023-10-09T07:29:02;46.58;45.27;49.81;;
72736;Laerm;60856;53.238;10.448;2023-10-09T07:31:41;46.58;45.35;49.46;;
72736;Laerm;60856;53.238;10.448;2023-10-09T07:34:10;46.57;45.40;49.88;;
72736;Laerm;60856;53.238;10.448;2023-10-09T07:36:55;46.60;45.26;49.72;;
72736;Laerm;60856;53.238;10.448;2023-10-09T07:39:21;46.68;45.39;51.12;;
72736;Laerm;60856;53.238;10.448;2023-10-09T07:41:47;46.83;45.56;55.02;;
72736;Laerm;60856;53.238;10.448;2023-10-09T07:44:27;50.03;45.78;58.01;;
72736;Laerm;60856;53.238;10.448;2023-10-09T07:47:04;46.85;45.22;55.10;;
72736;Laerm;60856;53.238;10.448;2023-10-09T07:49:39;50.25;45.30;57.70;;
72736;Laerm;60856;53.238;10.448;2023-10-09T07:52:05;48.19;45.20;58.19;;
72736;Laerm;60856;53.238;10.448;2023-10-09T07:54:31;49.54;45.38;60.11;;
72736;Laerm;60856;53.238;10.448;2023-10-09T07:57:01;48.26;46.59;51.18;;
72736;Laerm;60856;53.238;10.448;2023-10-09T07:59:34;48.15;46.05;52.55;;
72736;Laerm;60856;53.238;10.448;2023-10-09T08:02:02;47.92;45.24;56.45;;
72736;Laerm;60856;53.238;10.448;2023-10-09T08:04:31;46.57;45.43;49.62;;
72736;Laerm;60856;53.238;10.448;2023-10-09T08:07:15;46.54;45.16;49.59;;
72736;Laerm;60856;53.238;10.448;2023-10-09T08:09:59;46.55;45.37;49.61;;
72736;Laerm;60856;53.238;10.448;2023-10-09T08:12:39;46.54;45.32;49.78;;
72736;Laerm;60856;53.238;10.448;2023-10-09T08:15:23;46.55;45.24;49.92;;
72736;Laerm;60856;53.238;10.448;2023-10-09T08:20:25;46.54;45.18;49.50;;
72736;Laerm;60856;53.238;10.448;2023-10-09T08:22:51;46.56;45.30;49.87;;
72736;Laerm;60856;53.238;10.448;2023-10-09T08:25:17;46.57;45.10;49.42;;
72736;Laerm;60856;53.238;10.448;2023-10-09T08:27:52;48.73;45.20;59.97;;
72736;Laerm;60856;53.238;10.448;2023-10-09T08:30:20;49.90;45.41;58.00;;
72736;Laerm;60856;53.238;10.448;2023-10-09T08:32:53;49.95;45.31;58.53;;
72736;Laerm;60856;53.238;10.448;2023-10-09T08:35:37;50.27;45.46;58.88;;
72736;Laerm;60856;53.238;10.448;2023-10-09T08:38:12;49.38;45.49;56.70;;
72736;Laerm;60856;53.238;10.448;2023-10-09T08:40:39;49.70;45.43;60.23;;
72736;Laerm;60856;53.238;10.448;2023-10-09T08:43:14;48.56;45.51;58.80;;
72736;Laerm;60856;53.238;10.448;2023-10-09T08:45:40;49.38;45.53;60.32;;
72736;Laerm;60856;53.238;10.448;2023-10-09T08:48:08;49.41;45.58;57.94;;
72736;Laerm;60856;53.238;10.448;2023-10-09T08:50:40;49.31;45.52;59.16;;
72736;Laerm;60856;53.238;10.448;2023-10-09T08:53:08;48.26;45.22;57.74;;
72736;Laerm;60856;53.238;10.448;2023-10-09T08:55:35;51.28;46.71;56.63;;
72736;Laerm;60856;53.238;10.448;2023-10-09T08:58:01;48.99;45.29;57.90;;
72736;Laerm;60856;53.238;10.448;2023-10-09T09:00:30;48.97;45.32;57.64;;
72736;Laerm;60856;53.238;10.448;2023-10-09T09:02:58;50.19;45.36;58.26;;
72736;Laerm;60856;53.238;10.448;2023-10-09T09:05:25;49.77;45.27;57.64;;
72736;Laerm;60856;53.238;10.448;2023-10-09T09:07:53;47.88;45.31;56.38;;
72736;Laerm;60856;53.238;10.448;2023-10-09T09:10:26;46.60;45.31;49.95;;
72736;Laerm;60856;53.238;10.448;2023-10-09T09:13:00;46.59;45.31;50.10;;
72736;Laerm;60856;53.238;10.448;2023-10-09T09:15:29;49.46;45.24;58.17;;
72736;Laerm;60856;53.238;10.448;2023-10-09T09:18:07;50.55;46.69;54.80;;
72736;Laerm;60856;53.238;10.448;2023-10-09T09:20:34;49.05;45.20;62.85;;
72736;Laerm;60856;53.238;10.448;2023-10-09T09:23:05;49.43;45.52;59.12;;
72736;Laerm;60856;53.238;10.448;2023-10-09T09:25:43;47.54;46.19;50.18;;
72736;Laerm;60856;53.238;10.448;2023-10-09T09:28:09;49.56;45.67;64.61;;
72736;Laerm;60856;53.238;10.448;2023-10-09T09:30:38;48.50;45.66;59.30;;
72736;Laerm;60856;53.238;10.448;2023-10-09T09:33:22;48.39;45.56;57.96;;
72736;Laerm;60856;53.238;10.448;2023-10-09T09:36:08;49.68;45.24;61.78;;
72736;Laerm;60856;53.238;10.448;2023-10-09T09:38:36;49.37;45.19;63.23;;
72736;Laerm;60856;53.238;10.448;2023-10-09T09:41:12;50.14;45.08;58.13;;
72736;Laerm;60856;53.238;10.448;2023-10-09T09:43:38;48.80;45.42;60.05;;
72736;Laerm;60856;53.238;10.448;2023-10-09T09:46:10;48.80;45.10;57.94;;
72736;Laerm;60856;53.238;10.448;2023-10-09T09:48:39;46.58;45.38;49.59;;
72736;Laerm;60856;53.238;10.448;2023-10-09T09:51:07;46.59;45.27;49.89;;
72736;Laerm;60856;53.238;10.448;2023-10-09T09:53:33;46.59;45.31;49.73;;
72736;Laerm;60856;53.238;10.448;2023-10-09T09:55:59;46.59;45.37;49.88;;
72736;Laerm;60856;53.238;10.448;2023-10-09T09:58:25;46.60;45.38;49.83;;
72736;Laerm;60856;53.238;10.448;2023-10-09T10:01:00;50.64;45.35;56.33;;
72736;Laerm;60856;53.238;10.448;2023-10-09T10:03:28;48.30;45.52;59.51;;
72736;Laerm;60856;53.238;10.448;2023-10-09T10:05:57;48.06;45.29;58.93;;
72736;Laerm;60856;53.238;10.448;2023-10-09T10:08:24;49.60;45.47;59.21;;
72736;Laerm;60856;53.238;10.448;2023-10-09T10:10:58;50.49;45.56;56.26;;
72736;Laerm;60856;53.238;10.448;2023-10-09T10:14:02;49.50;45.52;58.74;;
72736;Laerm;60856;53.238;10.448;2023-10-09T10:16:24;48.07;45.32;58.14;;
72736;Laerm;60856;53.238;10.448;2023-10-09T10:19:00;51.07;45.73;56.99;;
72736;Laerm;60856;53.238;10.448;2023-10-09T10:21:32;49.51;45.43;59.40;;
72736;Laerm;60856;53.238;10.448;2023-10-09T10:24:00;47.81;45.45;57.98;;
72736;Laerm;60856;53.238;10.448;2023-10-09T10:26:32;46.56;45.28;49.98;;
72736;Laerm;60856;53.238;10.448;2023-10-09T10:29:19;46.99;45.34;56.26;;
72736;Laerm;60856;53.238;10.448;2023-10-09T10:31:51;50.44;45.63;55.25;;
72736;Laerm;60856;53.238;10.448;2023-10-09T10:34:17;47.50;45.31;55.85;;
72736;Laerm;60856;53.238;10.448;2023-10-09T10:36:48;46.59;45.39;49.72;;
72736;Laerm;60856;53.238;10.448;2023-10-09T10:39:17;46.60;45.45;49.70;;
72736;Laerm;60856;53.238;10.448;2023-10-09T10:41:56;46.79;45.33;55.47;;
72736;Laerm;60856;53.238;10.448;2023-10-09T10:44:40;51.18;45.55;55.62;;
72736;Laerm;60856;53.238;10.448;2023-10-09T10:47:10;48.16;45.35;59.41;;
72736;Laerm;60856;53.238;10.448;2023-10-09T10:49:52;50.32;45.35;58.82;;
72736;Laerm;60856;53.238;10.448;2023-10-09T10:52:23;46.62;45.35;49.71;;
72736;Laerm;60856;53.238;10.448;2023-10-09T10:57:53;46.59;45.34;53.92;;
72736;Laerm;60856;53.238;10.448;2023-10-09T11:00:19;50.36;45.43;58.05;;
72736;Laerm;60856;53.238;10.448;2023-10-09T11:03:03;46.60;45.41;49.64;;
72736;Laerm;60856;53.238;10.448;2023-10-09T11:05:44;46.63;45.34;50.10;;
72736;Laerm;60856;53.238;10.448;2023-10-09T11:08:15;52.03;45.84;57.61;;
72736;Laerm;60856;53.238;10.448;2023-10-09T11:10:41;49.25;45.35;56.94;;
72736;Laerm;60856;53.238;10.448;2023-10-09T11:13:21;49.93;45.31;57.07;;
72736;Laerm;60856;53.238;10.448;2023-10-09T11:15:56;46.71;45.32;49.63;;
72736;Laerm;60856;53.238;10.448;2023-10-09T11:18:42;47.47;45.42;58.74;;
72736;Laerm;60856;53.238;10.448;2023-10-09T11:21:14;46.59;45.31;49.64;;
72736;Laerm;60856;53.238;10.448;2023-10-09T11:23:40;46.60;45.31;49.87;;
72736;Laerm;60856;53.238;10.448;2023-10-09T11:26:18;46.60;45.33;50.34;;
72736;Laerm;60856;53.238;10.448;2023-10-09T11:29:09;46.58;45.36;50.32;;
72736;Laerm;60856;53.238;10.448;2023-10-09T11:31:57;46.59;45.37;53.40;;
72736;Laerm;60856;53.238;10.448;2023-10-09T11:34:24;46.57;45.22;49.76;;
72736;Laerm;60856;53.238;10.448;2023-10-09T11:37:00;46.58;45.33;49.47;;
72736;Laerm;60856;53.238;10.448;2023-10-09T11:39:29;46.61;45.33;49.72;;
72736;Laerm;60856;53.238;10.448;2023-10-09T11:42:02;46.60;45.32;49.58;;
72736;Laerm;60856;53.238;10.448;2023-10-09T11:44:40;46.95;45.32;55.87;;
72736;Laerm;60856;53.238;10.448;2023-10-09T11:47:09;46.65;45.37;49.91;;
72736;Laerm;60856;53.238;10.448;2023-10-09T11:49:54;46.62;45.25;49.80;;
72736;Laerm;60856;53.238;10.448;2023-10-09T11:52:26;46.62;45.41;49.77;;
72736;Laerm;60856;53.238;10.448;2023-10-09T11:54:57;46.62;45.28;49.78;;
72736;Laerm;60856;53.238;10.448;2023-10-09T11:57:24;46.63;45.50;49.67;;
72736;Laerm;60856;53.238;10.448;2023-10-09T11:59:55;46.63;45.42;50.32;;
72736;Laerm;60856;53.238;10.448;2023-10-09T12:02:20;46.62;45.33;50.07;;
72736;Laerm;60856;53.238;10.448;2023-10-09T12:04:46;46.63;45.22;50.91;;
72736;Laerm;60856;53.238;10.448;2023-10-09T12:07:11;46.62;44.92;49.58;;
72736;Laerm;60856;53.238;10.448;2023-10-09T12:09:39;46.63;45.36;50.33;;
72736;Laerm;60856;53.238;10.448;2023-10-09T12:12:06;46.61;45.29;50.29;;
72736;Laerm;60856;53.238;10.448;2023-10-09T12:14:32;46.63;45.40;49.86;;
72736;Laerm;60856;53.238;10.448;2023-10-09T12:17:02;46.63;45.12;50.83;;
72736;Laerm;60856;53.238;10.448;2023-10-09T12:19:33;46.62;45.46;49.91;;
72736;Laerm;60856;53.238;10.448;2023-10-09T12:21:59;46.61;45.37;49.65;;
72736;Laerm;60856;53.238;10.448;2023-10-09T12:24:25;46.63;45.26;49.43;;
72736;Laerm;60856;53.238;10.448;2023-10-09T12:26:51;46.62;45.34;49.52;;
72736;Laerm;60856;53.238;10.448;2023-10-09T12:29:18;46.63;45.25;49.55;;
72736;Laerm;60856;53.238;10.448;2023-10-09T12:31:44;46.64;45.19;49.77;;
72736;Laerm;60856;53.238;10.448;2023-10-09T12:34:10;46.62;45.23;50.06;;
72736;Laerm;60856;53.238;10.448;2023-10-09T12:36:41;46.63;45.38;49.75;;
72736;Laerm;60856;53.238;10.448;2023-10-09T12:39:08;46.62;45.40;49.62;;
72736;Laerm;60856;53.238;10.448;2023-10-09T12:41:42;46.62;45.33;50.36;;
72736;Laerm;60856;53.238;10.448;2023-10-09T12:44:07;46.62;45.21;50.00;;
72736;Laerm;60856;53.238;10.448;2023-10-09T12:46:39;46.61;45.39;49.47;;
72736;Laerm;60856;53.238;10.448;2023-10-09T12:49:05;46.64;45.05;49.70;;
72736;Laerm;60856;53.238;10.448;2023-10-09T12:51:30;46.64;45.39;49.52;;
72736;Laerm;60856;53.238;10.448;2023-10-09T12:53:56;46.61;45.28;50.03;;
72736;Laerm;60856;53.238;10.448;2023-10-09T12:56:26;46.63;45.48;49.91;;
72736;Laerm;60856;53.238;10.448;2023-10-09T12:59:00;46.61;45.24;49.57;;
72736;Laerm;60856;53.238;10.448;2023-10-09T13:01:27;46.61;45.10;49.60;;
72736;Laerm;60856;53.238;10.448;2023-10-09T13:03:57;46.62;45.40;49.70;;
72736;Laerm;60856;53.238;10.448;2023-10-09T13:06:24;46.64;45.31;49.71;;
72736;Laerm;60856;53.238;10.448;2023-10-09T13:08:49;46.63;45.35;49.47;;
72736;Laerm;60856;53.238;10.448;2023-10-09T13:11:17;46.62;45.03;49.82;;
72736;Laerm;60856;53.238;10.448;2023-10-09T13:13:42;46.63;45.31;49.61;;
72736;Laerm;60856;53.238;10.448;2023-10-09T13:16:21;46.63;45.20;49.75;;
72736;Laerm;60856;53.238;10.448;2023-10-09T13:21:21;46.62;45.25;49.56;;
72736;Laerm;60856;53.238;10.448;2023-10-09T13:23:47;46.62;45.14;50.09;;
72736;Laerm;60856;53.238;10.448;2023-10-09T13:26:15;46.64;45.41;49.76;;
72736;Laerm;60856;53.238;10.448;2023-10-09T13:28:47;46.63;45.19;50.24;;
72736;Laerm;60856;53.238;10.448;2023-10-09T13:31:13;46.63;45.10;50.55;;
72736;Laerm;60856;53.238;10.448;2023-10-09T13:33:43;46.64;45.10;50.06;;
72736;Laerm;60856;53.238;10.448;2023-10-09T13:36:09;46.64;45.40;49.64;;
72736;Laerm;60856;53.238;10.448;2023-10-09T13:41:43;46.63;45.32;49.66;;
72736;Laerm;60856;53.238;10.448;2023-10-09T13:44:09;46.62;45.12;49.76;;
72736;Laerm;60856;53.238;10.448;2023-10-09T13:46:34;46.63;45.23;49.68;;
72736;Laerm;60856;53.238;10.448;2023-10-09T13:49:06;46.65;45.26;50.51;;
72736;Laerm;60856;53.238;10.448;2023-10-09T13:51:37;46.63;45.33;49.75;;
72736;Laerm;60856;53.238;10.448;2023-10-09T13:54:02;46.64;45.25;49.45;;
72736;Laerm;60856;53.238;10.448;2023-10-09T13:56:32;46.63;45.24;49.79;;
72736;Laerm;60856;53.238;10.448;2023-10-09T13:58:57;46.62;45.32;50.77;;
72736;Laerm;60856;53.238;10.448;2023-10-09T14:01:22;46.63;45.16;49.67;;
72736;Laerm;60856;53.238;10.448;2023-10-09T14:03:57;46.64;45.27;49.94;;
72736;Laerm;60856;53.238;10.448;2023-10-09T14:06:24;46.64;45.42;49.62;;
72736;Laerm;60856;53.238;10.448;2023-10-09T14:09:02;46.64;45.33;49.81;;
72736;Laerm;60856;53.238;10.448;2023-10-09T14:11:34;46.63;45.34;49.36;;
72736;Laerm;60856;53.238;10.448;2023-10-09T14:14:06;46.64;45.29;49.55;;
72736;Laerm;60856;53.238;10.448;2023-10-09T14:16:38;46.63;45.41;50.10;;
72736;Laerm;60856;53.238;10.448;2023-10-09T14:19:07;46.64;45.40;49.57;;
72736;Laerm;60856;53.238;10.448;2023-10-09T14:21:38;46.66;45.20;49.97;;
72736;Laerm;60856;53.238;10.448;2023-10-09T14:24:08;46.64;45.34;49.76;;
72736;Laerm;60856;53.238;10.448;2023-10-09T14:26:44;46.63;45.31;50.23;;
72736;Laerm;60856;53.238;10.448;2023-10-09T14:29:16;46.64;45.33;49.63;;
72736;Laerm;60856;53.238;10.448;2023-10-09T14:31:45;46.62;45.46;49.61;;
72736;Laerm;60856;53.238;10.448;2023-10-09T14:34:24;46.64;45.19;49.38;;